Airport Information

KLMT - Klamath Falls Airport

KLMT 160753Z AUTO 15016G21KT 10SM SCT044 OVC055 03/00 A2973 RMK AO2 RAE02 SLP068 P0000 T00330000 400671039


  • General Information

  • Coordinates: N 42°9'21"/ W 121°43'58"
  • Location: N/A
  • Surveyed Elevation: 4095 MSL

Operations

Flow Name Active Runways Conditions
South Flow Landing: 14
Departing: 14
Wind Direction: 050-229°
Wind Speed: >10

Green background denotes normal operations.


Common Frequencies

Callsign Frequency Position Name
LMT_GND 121.900 Kingsley Ground

More at the Document Center


Charts